createdAt,value
2018-03-03T00:01:32.818Z,39.85
2018-03-03T00:04:01.146Z,41.20
2018-03-03T00:06:29.495Z,46.53
2018-03-03T00:08:57.814Z,41.63
2018-03-03T00:11:26.157Z,36.75
2018-03-03T00:13:54.482Z,40.05
2018-03-03T00:16:22.826Z,54.08
2018-03-03T00:18:51.154Z,43.22
2018-03-03T00:21:19.507Z,39.30
2018-03-03T00:23:47.831Z,36.55
2018-03-03T00:26:16.168Z,46.80
2018-03-03T00:28:44.498Z,45.85
2018-03-03T00:31:12.840Z,35.13
2018-03-03T00:33:41.165Z,40.20
2018-03-03T00:36:09.515Z,40.33
2018-03-03T00:38:37.842Z,50.38
2018-03-03T00:41:06.197Z,35.90
2018-03-03T00:43:34.510Z,34.80
2018-03-03T00:46:02.923Z,46.30
2018-03-03T00:48:31.235Z,41.90
2018-03-03T00:50:59.585Z,42.10
2018-03-03T00:53:27.914Z,49.33
2018-03-03T00:55:56.258Z,41.65
2018-03-03T00:58:24.590Z,33.35
2018-03-03T01:00:52.920Z,41.00
2018-03-03T01:03:21.250Z,39.08
2018-03-03T01:05:49.597Z,45.35
2018-03-03T01:08:17.930Z,38.97
2018-03-03T01:10:46.279Z,37.53
2018-03-03T01:13:14.602Z,52.85
2018-03-03T01:15:42.946Z,44.10
2018-03-03T01:18:11.265Z,55.25
2018-03-03T01:20:39.615Z,38.83
2018-03-03T01:23:07.937Z,44.10
2018-03-03T01:25:36.283Z,40.65
2018-03-03T01:28:04.610Z,32.55
2018-03-03T01:30:32.954Z,32.78
2018-03-03T01:33:01.277Z,38.65
2018-03-03T01:35:29.621Z,44.97
2018-03-03T01:37:57.954Z,44.33
2018-03-03T01:40:26.307Z,30.98
2018-03-03T01:42:54.634Z,36.03
2018-03-03T01:45:22.987Z,37.92
2018-03-03T01:47:51.310Z,36.53
2018-03-03T01:50:19.658Z,40.50
2018-03-03T01:52:47.986Z,44.63
2018-03-03T01:55:16.334Z,49.65
2018-03-03T01:57:44.666Z,41.70
2018-03-03T02:00:12.990Z,51.65
2018-03-03T02:02:41.341Z,45.88
2018-03-03T02:05:09.666Z,47.95
2018-03-03T02:07:38.026Z,37.00
2018-03-03T02:10:06.352Z,41.08
2018-03-03T02:12:34.693Z,53.38
2018-03-03T02:15:03.021Z,42.78
2018-03-03T02:17:31.360Z,46.70
2018-03-03T02:19:59.690Z,46.47
2018-03-03T02:22:28.042Z,40.58
2018-03-03T02:24:56.370Z,47.05
2018-03-03T02:27:24.714Z,44.50
2018-03-03T02:29:53.045Z,40.12
2018-03-03T02:32:21.387Z,40.42
2018-03-03T02:34:49.710Z,43.55
2018-03-03T02:37:18.073Z,40.75
2018-03-03T02:39:46.400Z,41.25
2018-03-03T02:42:14.742Z,44.05
2018-03-03T02:44:43.069Z,39.83
2018-03-03T02:47:11.461Z,43.85
2018-03-03T02:49:39.782Z,39.85
2018-03-03T02:52:08.142Z,37.03
2018-03-03T02:54:36.468Z,46.40
2018-03-03T02:57:04.815Z,52.92
2018-03-03T02:59:33.134Z,47.05
2018-03-03T03:02:01.483Z,40.50
2018-03-03T03:04:29.822Z,44.35
2018-03-03T03:06:58.175Z,53.53
2018-03-03T03:09:26.502Z,52.20
2018-03-03T03:11:54.855Z,40.42
2018-03-03T03:14:23.181Z,49.90
2018-03-03T03:16:51.531Z,44.70
2018-03-03T03:19:19.858Z,51.00
2018-03-03T03:21:48.209Z,40.55
2018-03-03T03:24:16.534Z,36.72
2018-03-03T03:26:44.885Z,43.95
2018-03-03T03:29:13.205Z,51.37
2018-03-03T03:31:41.555Z,47.97
2018-03-03T03:34:09.890Z,46.20
2018-03-03T03:36:38.230Z,47.13
2018-03-03T03:39:06.553Z,48.90
2018-03-03T03:41:34.899Z,44.25
2018-03-03T03:44:03.217Z,51.35
2018-03-03T03:46:31.574Z,44.97
2018-03-03T03:48:59.899Z,49.13
2018-03-03T03:51:28.246Z,53.42
2018-03-03T03:53:56.578Z,40.67
2018-03-03T03:56:24.930Z,34.53
2018-03-03T03:58:53.259Z,41.90
2018-03-03T04:01:21.582Z,50.30
2018-03-03T04:03:49.936Z,47.38
2018-03-03T04:06:18.257Z,48.38
2018-03-03T04:08:46.642Z,39.58
2018-03-03T04:11:14.970Z,49.28
2018-03-03T04:13:43.316Z,42.85
2018-03-03T04:16:11.642Z,41.60
2018-03-03T04:18:39.990Z,38.95
2018-03-03T04:21:08.318Z,31.00
2018-03-03T04:23:36.677Z,45.15
2018-03-03T04:26:05.001Z,44.50
2018-03-03T04:28:33.355Z,43.78
2018-03-03T04:31:01.686Z,44.15
2018-03-03T04:33:30.764Z,42.72
2018-03-03T04:35:59.089Z,42.67
2018-03-03T04:38:27.438Z,54.75
2018-03-03T04:40:55.778Z,42.38
2018-03-03T04:43:24.142Z,40.40
2018-03-03T04:45:52.474Z,47.40
2018-03-03T04:48:20.928Z,43.78
2018-03-03T04:50:49.242Z,48.28
2018-03-03T04:53:17.594Z,42.35
2018-03-03T04:55:45.922Z,48.53
2018-03-03T04:58:14.270Z,51.75
2018-03-03T05:00:44.959Z,40.00
2018-03-03T05:03:31.054Z,45.50
2018-03-03T05:05:59.731Z,52.78
2018-03-03T05:08:33.513Z,35.58
2018-03-03T05:11:01.857Z,32.55
2018-03-03T05:13:33.741Z,44.35
2018-03-03T05:16:07.659Z,42.75
2018-03-03T05:18:41.734Z,42.55
2018-03-03T05:24:22.737Z,50.63
2018-03-03T05:26:56.638Z,33.28
2018-03-03T05:32:48.530Z,45.42
2018-03-03T05:35:33.670Z,52.15
2018-03-03T05:41:22.506Z,55.50
2018-03-03T05:44:02.357Z,66.07
2018-03-03T05:49:39.301Z,45.70
2018-03-03T05:52:08.426Z,39.50
2018-03-03T05:54:42.332Z,44.83
2018-03-03T05:57:28.329Z,42.50
2018-03-03T06:00:02.262Z,48.60
2018-03-03T06:02:36.250Z,41.22
2018-03-03T06:05:10.270Z,53.67
2018-03-03T06:07:42.622Z,54.55
2018-03-03T06:10:12.777Z,52.42
2018-03-03T06:12:41.130Z,40.40
2018-03-03T06:15:09.453Z,43.13
2018-03-03T06:17:37.777Z,44.50
2018-03-03T06:20:06.118Z,61.70
2018-03-03T06:22:34.446Z,44.85
2018-03-03T06:25:02.799Z,60.95
2018-03-03T06:27:31.119Z,50.22
2018-03-03T06:29:59.461Z,48.95
2018-03-03T06:32:27.786Z,53.33
2018-03-03T06:34:56.142Z,49.55
2018-03-03T06:37:24.466Z,37.58
2018-03-03T06:39:52.813Z,49.67
2018-03-03T06:42:21.138Z,54.05
2018-03-03T06:44:49.482Z,45.35
2018-03-03T06:47:17.802Z,60.72
2018-03-03T06:49:46.145Z,50.67
2018-03-03T06:52:14.469Z,52.08
2018-03-03T06:54:42.814Z,42.60
2018-03-03T06:57:11.142Z,38.08
2018-03-03T06:59:39.486Z,45.70
2018-03-03T07:02:07.838Z,46.28
2018-03-03T07:04:36.193Z,65.53
2018-03-03T07:07:04.517Z,55.17
2018-03-03T07:09:32.861Z,49.63
2018-03-03T07:12:01.186Z,52.83
2018-03-03T07:14:31.894Z,49.20
2018-03-03T07:17:00.218Z,47.62
2018-03-03T07:19:28.563Z,58.03
2018-03-03T07:21:56.890Z,55.28
2018-03-03T07:24:25.239Z,47.60
2018-03-03T07:26:53.556Z,53.72
2018-03-03T07:29:21.901Z,45.67
2018-03-03T07:31:50.231Z,56.90
2018-03-03T07:34:18.582Z,50.67
2018-03-03T07:36:46.906Z,48.70
2018-03-03T07:39:15.265Z,46.45
2018-03-03T07:41:43.591Z,49.55
2018-03-03T07:44:11.939Z,47.20
2018-03-03T07:46:40.273Z,61.53
2018-03-03T07:49:08.616Z,54.40
2018-03-03T07:51:36.934Z,54.38
2018-03-03T07:54:05.278Z,40.35
2018-03-03T07:56:45.521Z,65.90
2018-03-03T07:59:13.870Z,49.05
2018-03-03T08:01:42.198Z,39.50
2018-03-03T08:04:10.546Z,47.33
2018-03-03T08:06:38.869Z,43.80
2018-03-03T08:09:07.226Z,51.73
2018-03-03T08:11:35.572Z,51.70
2018-03-03T08:14:04.617Z,44.63
2018-03-03T08:16:33.123Z,48.58
2018-03-03T08:19:01.472Z,50.83
2018-03-03T08:21:29.801Z,37.90
2018-03-03T08:23:58.155Z,64.45
2018-03-03T08:26:26.482Z,67.80
2018-03-03T08:28:54.809Z,53.57
2018-03-03T08:31:23.305Z,71.43
2018-03-03T08:33:51.722Z,57.63
2018-03-03T08:36:20.065Z,49.97
2018-03-03T08:38:48.419Z,62.45
2018-03-03T08:41:17.010Z,47.77
2018-03-03T08:43:45.334Z,54.57
2018-03-03T08:46:13.686Z,51.97
2018-03-03T08:48:42.013Z,46.70
2018-03-03T08:51:10.366Z,49.17
2018-03-03T08:53:38.690Z,65.73
2018-03-03T08:56:07.978Z,47.97
2018-03-03T08:58:36.306Z,54.83
2018-03-03T09:01:04.658Z,48.65
2018-03-03T09:03:32.986Z,85.93
2018-03-03T09:06:01.338Z,64.13
2018-03-03T09:08:30.854Z,65.87
2018-03-03T09:10:59.492Z,50.93
2018-03-03T09:13:28.323Z,60.00
2018-03-03T09:15:56.708Z,55.43
2018-03-03T09:18:25.029Z,55.73
2018-03-03T09:20:53.381Z,63.15
2018-03-03T09:23:21.729Z,63.07
2018-03-03T09:25:50.063Z,51.93
2018-03-03T09:28:18.390Z,62.43
2018-03-03T09:30:46.734Z,55.80
2018-03-03T09:33:15.140Z,63.27
2018-03-03T09:35:43.486Z,44.20
2018-03-03T09:38:11.829Z,62.77
2018-03-03T09:40:40.170Z,59.53
2018-03-03T09:43:08.506Z,54.28
2018-03-03T09:45:36.853Z,62.83
2018-03-03T09:48:05.173Z,47.22
2018-03-03T09:50:33.535Z,61.90
2018-03-03T09:53:02.875Z,52.13
2018-03-03T09:55:31.226Z,66.00
2018-03-03T09:57:59.559Z,65.80
2018-03-03T10:00:27.909Z,57.35
2018-03-03T10:02:56.287Z,54.43
2018-03-03T10:05:24.630Z,56.93
2018-03-03T10:07:52.961Z,63.10
2018-03-03T10:10:21.339Z,64.80
2018-03-03T10:12:49.730Z,57.50
2018-03-03T10:15:18.080Z,62.07
2018-03-03T10:17:46.414Z,53.93
2018-03-03T10:20:14.881Z,60.33
2018-03-03T10:22:43.241Z,58.95
2018-03-03T10:25:11.691Z,76.17
2018-03-03T10:27:40.062Z,51.10
2018-03-03T10:30:08.396Z,54.80
2018-03-03T10:32:37.440Z,73.90
2018-03-03T10:35:05.809Z,52.57
2018-03-03T10:37:34.201Z,58.73
2018-03-03T10:40:02.537Z,84.13
2018-03-03T10:42:30.984Z,65.03
2018-03-03T10:44:59.335Z,72.18
2018-03-03T10:47:27.674Z,55.58
2018-03-03T10:49:56.022Z,65.83
2018-03-03T10:52:24.378Z,66.50
2018-03-03T10:54:52.705Z,69.77
2018-03-03T10:57:21.073Z,65.30
2018-03-03T10:59:49.423Z,69.77
2018-03-03T11:02:17.808Z,64.90
2018-03-03T11:04:46.155Z,64.27
2018-03-03T11:07:14.519Z,76.87
2018-03-03T11:09:42.863Z,61.97
2018-03-03T11:12:12.098Z,69.47
2018-03-03T11:14:40.631Z,71.20
2018-03-03T11:17:09.018Z,63.97
2018-03-03T11:19:37.351Z,61.93
2018-03-03T11:22:05.723Z,61.75
2018-03-03T11:24:34.058Z,74.55
2018-03-03T11:27:02.416Z,60.07
2018-03-03T11:29:30.738Z,64.23
2018-03-03T11:31:59.830Z,64.53
2018-03-03T11:34:28.170Z,57.10
2018-03-03T11:36:56.524Z,74.70
2018-03-03T11:39:24.850Z,77.40
2018-03-03T11:41:53.216Z,78.65
2018-03-03T11:44:21.533Z,84.87
2018-03-03T11:46:49.894Z,79.12
2018-03-03T11:49:18.229Z,57.80
2018-03-03T11:51:47.375Z,65.20
2018-03-03T11:54:15.778Z,72.83
2018-03-03T11:56:44.131Z,68.30
2018-03-03T11:59:12.462Z,77.15
2018-03-03T12:01:40.817Z,77.37
2018-03-03T12:04:09.165Z,63.43
2018-03-03T12:06:37.499Z,71.83
2018-03-03T12:09:05.857Z,63.70
2018-03-03T12:11:34.225Z,76.63
2018-03-03T12:14:02.570Z,72.43
2018-03-03T12:16:30.901Z,62.70
2018-03-03T12:18:59.249Z,68.57
2018-03-03T12:21:27.578Z,64.95
2018-03-03T12:23:55.933Z,66.67
2018-03-03T12:26:25.255Z,65.10
2018-03-03T12:28:53.610Z,66.77
2018-03-03T12:31:21.936Z,66.53
2018-03-03T12:33:50.299Z,62.30
2018-03-03T12:36:18.626Z,73.97
2018-03-03T12:38:46.977Z,72.80
2018-03-03T12:41:15.318Z,69.07
2018-03-03T12:43:43.792Z,71.82
2018-03-03T12:46:13.013Z,82.63
2018-03-03T12:48:41.364Z,70.62
2018-03-03T12:51:09.702Z,80.80
2018-03-03T12:53:38.063Z,85.55
2018-03-03T12:56:06.390Z,76.50
2018-03-03T12:58:34.789Z,71.67
2018-03-03T13:01:03.074Z,63.97
2018-03-03T13:03:31.418Z,74.57
2018-03-03T13:06:00.726Z,67.50
2018-03-03T13:08:29.077Z,58.30
2018-03-03T13:10:57.405Z,72.20
2018-03-03T13:13:25.762Z,69.82
2018-03-03T13:15:54.099Z,70.47
2018-03-03T13:18:22.450Z,66.57
2018-03-03T13:20:50.777Z,75.40
2018-03-03T13:23:19.130Z,71.95
2018-03-03T13:25:47.454Z,77.80
2018-03-03T13:28:15.806Z,67.30
2018-03-03T13:30:44.142Z,76.87
2018-03-03T13:33:12.502Z,84.47
2018-03-03T13:35:40.854Z,96.03
2018-03-03T13:38:09.202Z,83.07
2018-03-03T13:40:37.530Z,71.72
2018-03-03T13:43:05.882Z,70.85
2018-03-03T13:45:34.223Z,81.13
2018-03-03T13:48:02.593Z,66.97
2018-03-03T13:50:30.914Z,88.60
2018-03-03T13:52:59.265Z,89.27
2018-03-03T13:55:27.593Z,128.82
2018-03-03T13:57:55.949Z,65.53
2018-03-03T14:00:24.275Z,70.67
2018-03-03T14:02:52.631Z,65.07
2018-03-03T14:05:20.970Z,71.05
2018-03-03T14:07:49.293Z,66.60
2018-03-03T14:10:17.646Z,65.93
2018-03-03T14:12:46.021Z,77.80
2018-03-03T14:15:14.369Z,62.90
2018-03-03T14:17:42.702Z,70.75
2018-03-03T14:20:11.055Z,76.47
2018-03-03T14:22:39.381Z,64.62
2018-03-03T14:25:07.733Z,66.90
2018-03-03T14:27:36.058Z,69.93
2018-03-03T14:30:04.430Z,73.45
2018-03-03T14:32:32.758Z,64.83
2018-03-03T14:35:01.113Z,62.97
2018-03-03T14:37:29.461Z,68.00
2018-03-03T14:39:57.825Z,62.30
2018-03-03T14:42:26.150Z,68.07
2018-03-03T14:44:54.497Z,71.97
2018-03-03T14:47:22.827Z,73.22
2018-03-03T14:49:51.224Z,67.07
2018-03-03T14:52:19.845Z,93.00
2018-03-03T14:54:48.194Z,70.27
2018-03-03T14:57:16.530Z,86.60
2018-03-03T14:59:44.875Z,59.28
2018-03-03T15:02:13.201Z,71.60
2018-03-03T15:04:41.553Z,70.60
2018-03-03T15:07:09.874Z,67.77
2018-03-03T15:09:38.221Z,64.90
2018-03-03T15:12:06.706Z,68.75
2018-03-03T15:14:35.099Z,77.23
2018-03-03T15:17:03.441Z,61.90
2018-03-03T15:19:31.946Z,71.67
2018-03-03T15:22:00.277Z,65.70
2018-03-03T15:24:28.622Z,69.70
2018-03-03T15:26:56.950Z,67.90
2018-03-03T15:29:25.293Z,66.37
2018-03-03T15:31:53.631Z,72.30
2018-03-03T15:34:21.974Z,85.80
2018-03-03T15:36:50.302Z,73.25
2018-03-03T15:39:18.678Z,84.50
2018-03-03T15:41:46.994Z,77.80
2018-03-03T15:44:15.335Z,64.73
2018-03-03T15:46:43.681Z,63.30
2018-03-03T15:49:13.107Z,55.83
2018-03-03T15:51:41.446Z,62.73
2018-03-03T15:54:09.802Z,59.33
2018-03-03T15:56:38.145Z,70.62
2018-03-03T15:59:06.506Z,61.00
2018-03-03T16:01:34.844Z,67.82
2018-03-03T16:04:03.207Z,67.75
2018-03-03T16:06:31.534Z,58.80
2018-03-03T16:08:59.886Z,57.17
2018-03-03T16:11:28.236Z,59.33
2018-03-03T16:13:56.586Z,59.83
2018-03-03T16:16:24.968Z,63.53
2018-03-03T16:18:53.326Z,52.17
2018-03-03T16:21:21.686Z,55.87
2018-03-03T16:23:50.018Z,53.00
2018-03-03T16:26:19.302Z,47.37
2018-03-03T16:28:47.634Z,54.50
2018-03-03T16:31:16.037Z,49.77
2018-03-03T16:33:44.378Z,49.77
2018-03-03T16:36:13.735Z,56.37
2018-03-03T16:38:42.101Z,55.47
2018-03-03T16:41:10.439Z,51.67
2018-03-03T16:43:38.769Z,48.92
2018-03-03T16:46:07.114Z,54.35
2018-03-03T16:48:35.446Z,55.10
2018-03-03T16:51:03.797Z,51.17
2018-03-03T16:53:32.122Z,45.87
2018-03-03T16:56:01.510Z,56.90
2018-03-03T16:58:29.907Z,57.22
2018-03-03T17:00:58.238Z,48.50
2018-03-03T17:03:26.627Z,48.37
2018-03-03T17:05:55.139Z,41.33
2018-03-03T17:08:24.306Z,46.50
2018-03-03T17:10:52.658Z,45.63
2018-03-03T17:13:20.990Z,46.67
2018-03-03T17:15:49.337Z,46.63
2018-03-03T17:18:17.682Z,46.13
2018-03-03T17:20:46.030Z,42.90
2018-03-03T17:23:14.395Z,45.33
2018-03-03T17:25:42.726Z,51.63
2018-03-03T17:28:11.093Z,51.37
2018-03-03T17:30:39.437Z,37.20
2018-03-03T17:33:07.802Z,41.67
2018-03-03T17:35:36.138Z,44.80
2018-03-03T17:38:04.461Z,56.70
2018-03-03T17:40:32.817Z,37.87
2018-03-03T17:43:01.186Z,47.75
2018-03-03T17:45:29.545Z,41.00
2018-03-03T17:47:57.882Z,44.70
2018-03-03T17:50:26.229Z,40.23
2018-03-03T17:52:54.579Z,42.63
2018-03-03T17:55:22.922Z,40.20
2018-03-03T17:57:51.318Z,38.80
2018-03-03T18:00:19.778Z,49.05
2018-03-03T18:02:48.106Z,43.77
2018-03-03T18:05:16.502Z,51.27
2018-03-03T18:07:44.826Z,42.37
2018-03-03T18:10:13.198Z,45.40
2018-03-03T18:12:41.526Z,46.00
2018-03-03T18:15:09.869Z,43.90
2018-03-03T18:17:38.223Z,42.87
2018-03-03T18:20:06.550Z,46.23
2018-03-03T18:22:35.186Z,37.17
2018-03-03T18:25:04.894Z,47.57
2018-03-03T18:27:33.246Z,40.13
2018-03-03T18:30:01.655Z,39.37
2018-03-03T18:32:30.013Z,48.67
2018-03-03T18:34:58.340Z,43.40
2018-03-03T18:37:26.782Z,53.23
2018-03-03T18:39:55.194Z,53.50
2018-03-03T18:42:23.528Z,44.17
2018-03-03T18:44:51.856Z,46.88
2018-03-03T18:47:20.210Z,48.17
2018-03-03T18:49:48.577Z,40.80
2018-03-03T18:52:16.935Z,40.30
2018-03-03T18:54:45.273Z,37.80
2018-03-03T18:57:13.629Z,53.25
2018-03-03T18:59:41.958Z,45.47
2018-03-03T19:02:10.362Z,47.85
2018-03-03T19:04:38.694Z,45.17
2018-03-03T19:07:07.990Z,42.03
2018-03-03T19:09:36.406Z,48.80
2018-03-03T19:12:04.855Z,35.50
2018-03-03T19:14:33.261Z,41.53
2018-03-03T19:17:01.621Z,37.83
2018-03-03T19:19:29.955Z,37.25
2018-03-03T19:21:58.299Z,38.03
2018-03-03T19:24:26.773Z,43.37
2018-03-03T19:26:55.201Z,51.60
2018-03-03T19:29:23.526Z,40.20
2018-03-03T19:31:51.881Z,50.55
2018-03-03T19:34:20.207Z,35.93
2018-03-03T19:36:48.550Z,46.50
2018-03-03T19:39:16.891Z,51.27
2018-03-03T19:41:45.327Z,42.55
2018-03-03T19:44:13.642Z,51.70
2018-03-03T19:46:42.005Z,61.63
2018-03-03T19:49:10.334Z,48.70
2018-03-03T19:51:38.719Z,52.00
2018-03-03T19:54:07.100Z,55.87
2018-03-03T19:56:35.469Z,70.40
2018-03-03T19:59:03.873Z,70.60
2018-03-03T20:01:32.210Z,105.27
2018-03-03T20:04:00.550Z,53.87
2018-03-03T20:06:29.336Z,65.87
2018-03-03T20:08:58.022Z,53.23
2018-03-03T20:11:26.911Z,114.50
2018-03-03T20:13:55.698Z,61.97
2018-03-03T20:16:24.587Z,84.40
2018-03-03T20:18:53.373Z,54.43
2018-03-03T20:21:22.160Z,54.77
2018-03-03T20:23:51.973Z,45.75
2018-03-03T20:26:20.764Z,62.10
2018-03-03T20:28:49.646Z,48.60
2018-03-03T20:31:18.433Z,42.20
2018-03-03T20:33:47.323Z,44.10
2018-03-03T20:36:16.211Z,48.07
2018-03-03T20:38:45.100Z,43.28
2018-03-03T20:41:14.093Z,38.23
2018-03-03T20:43:42.982Z,43.03
2018-03-03T20:46:11.845Z,42.03
2018-03-03T20:48:40.760Z,46.07
2018-03-03T20:51:09.546Z,49.55
2018-03-03T20:53:38.436Z,73.20
2018-03-03T20:56:08.247Z,122.93
2018-03-03T20:58:36.824Z,73.10
2018-03-03T21:01:05.150Z,98.43
2018-03-03T21:03:33.501Z,70.20
2018-03-03T21:06:01.834Z,45.43
2018-03-03T21:08:30.187Z,44.47
2018-03-03T21:10:58.518Z,42.30
2018-03-03T21:13:26.867Z,43.50
2018-03-03T21:15:55.195Z,43.13
2018-03-03T21:18:24.215Z,41.57
2018-03-03T21:20:52.596Z,44.20
2018-03-03T21:23:20.944Z,42.58
2018-03-03T21:25:49.306Z,41.60
2018-03-03T21:28:17.666Z,41.80
2018-03-03T21:30:46.022Z,44.80
2018-03-03T21:33:14.471Z,41.97
2018-03-03T21:35:42.802Z,45.10
2018-03-03T21:38:11.221Z,47.53
2018-03-03T21:40:39.607Z,46.87
2018-03-03T21:43:07.958Z,45.27
2018-03-03T21:45:36.350Z,42.20
2018-03-03T21:48:04.694Z,38.80
2018-03-03T21:50:33.107Z,37.90
2018-03-03T21:53:01.463Z,55.25
2018-03-03T21:55:29.878Z,42.93
2018-03-03T21:57:58.235Z,44.53
2018-03-03T22:00:26.577Z,45.93
2018-03-03T22:02:54.939Z,36.15
2018-03-03T22:05:23.258Z,37.58
2018-03-03T22:07:51.642Z,35.33
2018-03-03T22:10:20.031Z,40.00
2018-03-03T22:12:48.388Z,45.45
2018-03-03T22:15:16.778Z,42.17
2018-03-03T22:17:45.134Z,54.03
2018-03-03T22:20:13.593Z,38.13
2018-03-03T22:22:41.905Z,52.23
2018-03-03T22:25:10.287Z,44.50
2018-03-03T22:27:38.658Z,44.38
2018-03-03T22:30:06.987Z,41.60
2018-03-03T22:32:35.418Z,39.03
2018-03-03T22:35:03.761Z,68.70
2018-03-03T22:37:32.088Z,49.40
2018-03-03T22:40:00.446Z,49.00
2018-03-03T22:42:28.826Z,40.50
2018-03-03T22:44:57.179Z,49.10
2018-03-03T22:47:25.508Z,43.20
2018-03-03T22:49:53.856Z,51.17
2018-03-03T22:52:22.186Z,49.47
2018-03-03T22:54:50.612Z,47.27
2018-03-03T22:57:18.981Z,46.87
2018-03-03T22:59:47.341Z,45.43
2018-03-03T23:02:15.675Z,56.95
2018-03-03T23:04:44.477Z,53.87
2018-03-03T23:07:12.822Z,41.07
2018-03-03T23:09:41.171Z,49.57
2018-03-03T23:12:09.562Z,43.23
2018-03-03T23:14:37.918Z,49.70
2018-03-03T23:17:06.238Z,47.65
2018-03-03T23:19:34.587Z,46.63
2018-03-03T23:22:02.918Z,48.00
2018-03-03T23:24:31.268Z,56.10
2018-03-03T23:26:59.610Z,44.88
2018-03-03T23:29:27.986Z,48.53
2018-03-03T23:31:56.305Z,50.20
2018-03-03T23:34:24.650Z,46.33
2018-03-03T23:36:52.974Z,45.65
2018-03-03T23:39:21.318Z,52.35
2018-03-03T23:41:49.642Z,41.37
2018-03-03T23:44:18.046Z,54.65
2018-03-03T23:46:46.377Z,53.45
2018-03-03T23:49:14.722Z,50.83
2018-03-03T23:51:43.046Z,60.83
2018-03-03T23:54:11.415Z,63.78
2018-03-03T23:56:39.742Z,46.58
2018-03-03T23:59:08.086Z,47.50
